sensor_id;sensor_type;location;lat;lon;timestamp;pressure;altitude;pressure_sealevel;temperature;humidity
36404;BME280;22437;55.646;37.518;2022-08-20T00:00:19;99796.38;;;21.24;35.82
36404;BME280;22437;55.646;37.518;2022-08-20T00:02:51;99799.16;;;21.24;35.94
36404;BME280;22437;55.646;37.518;2022-08-20T00:05:26;99798.75;;;21.29;35.97
36404;BME280;22437;55.646;37.518;2022-08-20T00:07:59;99799.53;;;21.22;36.04
36404;BME280;22437;55.646;37.518;2022-08-20T00:10:30;99793.22;;;21.25;36.32
36404;BME280;22437;55.646;37.518;2022-08-20T00:13:03;99802.69;;;21.24;36.66
36404;BME280;22437;55.646;37.518;2022-08-20T00:15:36;99796.78;;;21.26;36.92
36404;BME280;22437;55.646;37.518;2022-08-20T00:18:07;99796.38;;;21.06;37.15
36404;BME280;22437;55.646;37.518;2022-08-20T00:20:42;99812.19;;;21.12;37.66
36404;BME280;22437;55.646;37.518;2022-08-20T00:23:13;99807.44;;;20.99;37.77
36404;BME280;22437;55.646;37.518;2022-08-20T00:25:44;99809.81;;;20.93;37.97
36404;BME280;22437;55.646;37.518;2022-08-20T00:28:13;99809.81;;;20.93;38.49
36404;BME280;22437;55.646;37.518;2022-08-20T00:30:47;99812.56;;;20.89;38.54
36404;BME280;22437;55.646;37.518;2022-08-20T00:33:22;99812.56;;;20.86;38.74
36404;BME280;22437;55.646;37.518;2022-08-20T00:35:54;99800.28;;;20.80;38.86
36404;BME280;22437;55.646;37.518;2022-08-20T00:38:24;99800.25;;;20.69;39.20
36404;BME280;22437;55.646;37.518;2022-08-20T00:40:56;99810.91;;;20.63;39.52
36404;BME280;22437;55.646;37.518;2022-08-20T00:43:31;99808.56;;;20.65;39.44
36404;BME280;22437;55.646;37.518;2022-08-20T00:46:07;99809.38;;;20.69;39.69
36404;BME280;22437;55.646;37.518;2022-08-20T00:48:39;99804.56;;;20.59;39.53
36404;BME280;22437;55.646;37.518;2022-08-20T00:51:12;99798.63;;;20.53;40.08
36404;BME280;22437;55.646;37.518;2022-08-20T00:53:43;99803.75;;;20.51;40.21
36404;BME280;22437;55.646;37.518;2022-08-20T00:56:14;99803.72;;;20.48;40.14
36404;BME280;22437;55.646;37.518;2022-08-20T00:58:46;99802.16;;;20.47;40.32
36404;BME280;22437;55.646;37.518;2022-08-20T01:01:20;99811.66;;;20.53;40.16
36404;BME280;22437;55.646;37.518;2022-08-20T01:03:51;99801.78;;;20.48;40.26
36404;BME280;22437;55.646;37.518;2022-08-20T01:06:25;99810.84;;;20.49;40.29
36404;BME280;22437;55.646;37.518;2022-08-20T01:08:55;99809.66;;;20.43;40.48
36404;BME280;22437;55.646;37.518;2022-08-20T01:11:25;99802.19;;;20.50;40.24
36404;BME280;22437;55.646;37.518;2022-08-20T01:14:08;99808.47;;;20.47;40.37
36404;BME280;22437;55.646;37.518;2022-08-20T01:16:55;99801.69;;;20.30;40.90
36404;BME280;22437;55.646;37.518;2022-08-20T01:19:39;99815.91;;;20.32;40.79
36404;BME280;22437;55.646;37.518;2022-08-20T01:22:09;99808.41;;;20.26;40.86
36404;BME280;22437;55.646;37.518;2022-08-20T01:25:00;99804.09;;;20.32;40.83
36404;BME280;22437;55.646;37.518;2022-08-20T01:27:34;99808.78;;;20.24;41.06
36404;BME280;22437;55.646;37.518;2022-08-20T01:30:09;99809.94;;;20.12;41.13
36404;BME280;22437;55.646;37.518;2022-08-20T01:32:40;99819.75;;;20.10;41.21
36404;BME280;22437;55.646;37.518;2022-08-20T01:35:09;99812.56;;;19.91;41.79
36404;BME280;22437;55.646;37.518;2022-08-20T01:37:40;99812.25;;;20.03;40.98
36404;BME280;22437;55.646;37.518;2022-08-20T01:40:26;99808.66;;;19.95;41.62
36404;BME280;22437;55.646;37.518;2022-08-20T01:42:58;99813.59;;;20.45;40.87
36404;BME280;22437;55.646;37.518;2022-08-20T01:45:33;99807.88;;;19.99;41.44
36404;BME280;22437;55.646;37.518;2022-08-20T01:48:07;99818.94;;;19.99;41.40
36404;BME280;22437;55.646;37.518;2022-08-20T01:50:40;99810.19;;;19.86;41.64
36404;BME280;22437;55.646;37.518;2022-08-20T01:53:16;99814.72;;;19.64;42.30
36404;BME280;22437;55.646;37.518;2022-08-20T01:55:47;99811.59;;;19.65;42.43
36404;BME280;22437;55.646;37.518;2022-08-20T01:58:18;99815.16;;;19.69;42.06
36404;BME280;22437;55.646;37.518;2022-08-20T02:00:48;99811.13;;;20.19;40.92
36404;BME280;22437;55.646;37.518;2022-08-20T02:03:19;99812.41;;;19.69;41.55
36404;BME280;22437;55.646;37.518;2022-08-20T02:05:50;99817.88;;;19.59;41.65
36404;BME280;22437;55.646;37.518;2022-08-20T02:08:21;99817.03;;;19.54;41.74
36404;BME280;22437;55.646;37.518;2022-08-20T02:10:51;99815.47;;;19.53;41.80
36404;BME280;22437;55.646;37.518;2022-08-20T02:13:23;99817.78;;;20.03;40.96
36404;BME280;22437;55.646;37.518;2022-08-20T02:15:53;99822.56;;;19.54;41.70
36404;BME280;22437;55.646;37.518;2022-08-20T02:18:24;99826.44;;;19.46;41.51
36404;BME280;22437;55.646;37.518;2022-08-20T02:20:54;99821.66;;;19.40;41.80
36404;BME280;22437;55.646;37.518;2022-08-20T02:23:24;99835.06;;;19.41;41.98
36404;BME280;22437;55.646;37.518;2022-08-20T02:25:54;99823.59;;;19.35;41.90
36404;BME280;22437;55.646;37.518;2022-08-20T02:28:25;99823.25;;;19.41;42.22
36404;BME280;22437;55.646;37.518;2022-08-20T02:30:56;99818.50;;;19.38;41.87
36404;BME280;22437;55.646;37.518;2022-08-20T02:33:28;99825.16;;;19.85;41.42
36404;BME280;22437;55.646;37.518;2022-08-20T02:35:58;99828.88;;;19.55;41.77
36404;BME280;22437;55.646;37.518;2022-08-20T02:38:29;99827.59;;;19.42;41.90
36404;BME280;22437;55.646;37.518;2022-08-20T02:41:04;99837.88;;;19.48;41.71
36404;BME280;22437;55.646;37.518;2022-08-20T02:43:35;99834.34;;;19.48;41.94
36404;BME280;22437;55.646;37.518;2022-08-20T02:46:06;99835.75;;;19.72;41.55
36404;BME280;22437;55.646;37.518;2022-08-20T02:48:36;99841.34;;;19.86;40.67
36404;BME280;22437;55.646;37.518;2022-08-20T02:51:07;99842.53;;;19.89;40.45
36404;BME280;22437;55.646;37.518;2022-08-20T02:53:39;99837.41;;;19.91;40.82
36404;BME280;22437;55.646;37.518;2022-08-20T02:56:11;99845.22;;;19.74;40.81
36404;BME280;22437;55.646;37.518;2022-08-20T02:58:45;99839.72;;;19.78;41.10
36404;BME280;22437;55.646;37.518;2022-08-20T03:01:17;99841.88;;;19.54;41.54
36404;BME280;22437;55.646;37.518;2022-08-20T03:03:47;99851.69;;;19.48;41.55
36404;BME280;22437;55.646;37.518;2022-08-20T03:06:18;99838.31;;;19.54;41.62
36404;BME280;22437;55.646;37.518;2022-08-20T03:08:50;99835.56;;;19.54;41.42
36404;BME280;22437;55.646;37.518;2022-08-20T03:11:20;99833.59;;;19.54;41.11
36404;BME280;22437;55.646;37.518;2022-08-20T03:13:51;99836.81;;;19.64;41.26
36404;BME280;22437;55.646;37.518;2022-08-20T03:16:21;99836.06;;;19.67;40.92
36404;BME280;22437;55.646;37.518;2022-08-20T03:18:51;99832.13;;;19.71;41.08
36404;BME280;22437;55.646;37.518;2022-08-20T03:21:21;99833.38;;;19.74;40.79
36404;BME280;22437;55.646;37.518;2022-08-20T03:23:51;99842.75;;;19.66;40.96
36404;BME280;22437;55.646;37.518;2022-08-20T03:26:21;99843.63;;;19.73;41.37
36404;BME280;22437;55.646;37.518;2022-08-20T03:28:55;99839.34;;;19.80;41.31
36404;BME280;22437;55.646;37.518;2022-08-20T03:31:24;99840.00;;;19.69;41.26
36404;BME280;22437;55.646;37.518;2022-08-20T03:33:53;99838.13;;;19.77;41.09
36404;BME280;22437;55.646;37.518;2022-08-20T03:36:25;99845.28;;;19.82;41.11
36404;BME280;22437;55.646;37.518;2022-08-20T03:38:58;99845.72;;;19.87;41.25
36404;BME280;22437;55.646;37.518;2022-08-20T03:41:28;99853.16;;;19.80;41.46
36404;BME280;22437;55.646;37.518;2022-08-20T03:44:00;99844.03;;;19.75;41.53
36404;BME280;22437;55.646;37.518;2022-08-20T03:46:29;99851.84;;;19.70;41.40
36404;BME280;22437;55.646;37.518;2022-08-20T03:49:00;99847.50;;;19.69;41.69
36404;BME280;22437;55.646;37.518;2022-08-20T03:51:30;99854.34;;;19.82;41.55
36404;BME280;22437;55.646;37.518;2022-08-20T03:54:25;99847.69;;;19.90;41.00
36404;BME280;22437;55.646;37.518;2022-08-20T03:56:59;99848.09;;;19.92;41.18
36404;BME280;22437;55.646;37.518;2022-08-20T03:59:42;99849.31;;;19.99;41.22
36404;BME280;22437;55.646;37.518;2022-08-20T04:02:16;99847.31;;;19.92;40.81
36404;BME280;22437;55.646;37.518;2022-08-20T04:04:47;99859.25;;;20.10;40.74
36404;BME280;22437;55.646;37.518;2022-08-20T04:07:18;99857.78;;;20.34;40.29
36404;BME280;22437;55.646;37.518;2022-08-20T04:09:53;99863.38;;;20.49;39.68
36404;BME280;22437;55.646;37.518;2022-08-20T04:12:23;99853.19;;;20.60;39.46
36404;BME280;22437;55.646;37.518;2022-08-20T04:14:55;99848.56;;;21.18;38.40
36404;BME280;22437;55.646;37.518;2022-08-20T04:17:26;99850.09;;;20.80;38.87
36404;BME280;22437;55.646;37.518;2022-08-20T04:20:02;99853.63;;;20.77;38.88
36404;BME280;22437;55.646;37.518;2022-08-20T04:22:31;99864.69;;;20.80;38.63
36404;BME280;22437;55.646;37.518;2022-08-20T04:25:01;99854.88;;;20.97;38.60
36404;BME280;22437;55.646;37.518;2022-08-20T04:27:35;99858.44;;;21.08;38.27
36404;BME280;22437;55.646;37.518;2022-08-20T04:30:11;99851.75;;;21.31;37.89
36404;BME280;22437;55.646;37.518;2022-08-20T04:32:42;99845.41;;;21.38;37.45
36404;BME280;22437;55.646;37.518;2022-08-20T04:35:13;99841.47;;;21.49;36.96
36404;BME280;22437;55.646;37.518;2022-08-20T04:37:45;99854.91;;;21.76;36.39
36404;BME280;22437;55.646;37.518;2022-08-20T04:40:16;99852.13;;;22.01;36.27
36404;BME280;22437;55.646;37.518;2022-08-20T04:43:04;99852.88;;;22.09;35.62
36404;BME280;22437;55.646;37.518;2022-08-20T04:45:35;99846.94;;;22.25;35.82
36404;BME280;22437;55.646;37.518;2022-08-20T04:48:05;99849.28;;;22.16;35.52
36404;BME280;22437;55.646;37.518;2022-08-20T04:50:43;99857.63;;;22.12;36.00
36404;BME280;22437;55.646;37.518;2022-08-20T04:53:17;99847.72;;;22.25;35.91
36404;BME280;22437;55.646;37.518;2022-08-20T04:55:54;99852.13;;;21.90;36.06
36404;BME280;22437;55.646;37.518;2022-08-20T04:58:26;99850.94;;;21.95;36.33
36404;BME280;22437;55.646;37.518;2022-08-20T05:01:00;99853.34;;;21.75;36.60
36404;BME280;22437;55.646;37.518;2022-08-20T05:03:33;99853.34;;;21.61;35.92
36404;BME280;22437;55.646;37.518;2022-08-20T05:06:05;99843.44;;;21.78;36.32
36404;BME280;22437;55.646;37.518;2022-08-20T05:08:35;99852.53;;;21.85;36.04
36404;BME280;22437;55.646;37.518;2022-08-20T05:11:06;99852.13;;;21.76;36.08
36404;BME280;22437;55.646;37.518;2022-08-20T05:14:10;99848.16;;;21.99;35.75
36404;BME280;22437;55.646;37.518;2022-08-20T05:16:44;99850.94;;;21.95;36.05
36404;BME280;22437;55.646;37.518;2022-08-20T05:19:14;99856.47;;;21.95;35.23
36404;BME280;22437;55.646;37.518;2022-08-20T05:21:44;99867.16;;;21.93;35.17
36404;BME280;22437;55.646;37.518;2022-08-20T05:24:14;99858.50;;;21.73;35.16
36404;BME280;22437;55.646;37.518;2022-08-20T05:26:46;99863.63;;;21.85;36.29
36404;BME280;22437;55.646;37.518;2022-08-20T05:29:17;99862.00;;;21.95;35.59
36404;BME280;22437;55.646;37.518;2022-08-20T05:31:50;99856.47;;;21.95;35.17
36404;BME280;22437;55.646;37.518;2022-08-20T05:34:20;99857.28;;;21.85;35.34
36404;BME280;22437;55.646;37.518;2022-08-20T05:36:50;99868.38;;;21.92;34.84
36404;BME280;22437;55.646;37.518;2022-08-20T05:39:22;99866.78;;;21.87;34.89
36404;BME280;22437;55.646;37.518;2022-08-20T05:41:52;99864.44;;;21.82;35.36
36404;BME280;22437;55.646;37.518;2022-08-20T05:44:21;99875.91;;;21.77;35.18
36404;BME280;22437;55.646;37.518;2022-08-20T05:46:56;99877.88;;;21.73;35.40
36404;BME280;22437;55.646;37.518;2022-08-20T05:49:27;99872.31;;;21.37;35.75
36404;BME280;22437;55.646;37.518;2022-08-20T05:51:56;99873.94;;;21.53;35.69
36404;BME280;22437;55.646;37.518;2022-08-20T05:54:26;99882.19;;;21.42;36.07
36404;BME280;22437;55.646;37.518;2022-08-20T05:56:56;99882.66;;;21.44;36.02
36404;BME280;22437;55.646;37.518;2022-08-20T05:59:29;99879.09;;;21.58;35.74
36404;BME280;22437;55.646;37.518;2022-08-20T06:02:02;99871.16;;;21.67;35.85
36404;BME280;22437;55.646;37.518;2022-08-20T06:04:52;99880.09;;;22.54;34.07
36404;BME280;22437;55.646;37.518;2022-08-20T06:07:23;99875.84;;;21.99;34.85
36404;BME280;22437;55.646;37.518;2022-08-20T06:09:53;99862.81;;;21.88;35.04
36404;BME280;22437;55.646;37.518;2022-08-20T06:12:23;99858.88;;;21.79;34.91
36404;BME280;22437;55.646;37.518;2022-08-20T06:14:54;99862.81;;;21.81;34.72
36404;BME280;22437;55.646;37.518;2022-08-20T06:17:25;99877.84;;;21.95;35.30
36404;BME280;22437;55.646;37.518;2022-08-20T06:20:07;99872.63;;;22.22;34.76
36404;BME280;22437;55.646;37.518;2022-08-20T06:22:38;99875.03;;;22.27;34.47
36404;BME280;22437;55.646;37.518;2022-08-20T06:25:08;99870.63;;;22.47;33.89
36404;BME280;22437;55.646;37.518;2022-08-20T06:27:39;99870.94;;;22.60;33.20
36404;BME280;22437;55.646;37.518;2022-08-20T06:30:12;99879.25;;;22.64;33.58
36404;BME280;22437;55.646;37.518;2022-08-20T06:32:45;99875.69;;;22.67;33.66
36404;BME280;22437;55.646;37.518;2022-08-20T06:35:16;99879.66;;;22.62;33.63
36404;BME280;22437;55.646;37.518;2022-08-20T06:37:47;99880.31;;;22.92;33.27
36404;BME280;22437;55.646;37.518;2022-08-20T06:40:20;99879.94;;;23.49;32.40
36404;BME280;22437;55.646;37.518;2022-08-20T06:42:51;99868.38;;;23.58;31.58
36404;BME280;22437;55.646;37.518;2022-08-20T06:45:26;99855.91;;;24.49;29.94
36404;BME280;22437;55.646;37.518;2022-08-20T06:48:01;99853.88;;;24.53;29.72
36404;BME280;22437;55.646;37.518;2022-08-20T06:50:36;99851.34;;;23.97;30.80
36404;BME280;22437;55.646;37.518;2022-08-20T06:53:17;99850.78;;;23.72;30.31
36404;BME280;22437;55.646;37.518;2022-08-20T06:55:52;99855.91;;;23.28;31.02
36404;BME280;22437;55.646;37.518;2022-08-20T06:58:24;99854.47;;;22.98;31.32
36404;BME280;22437;55.646;37.518;2022-08-20T07:01:06;99842.22;;;22.96;31.08
36404;BME280;22437;55.646;37.518;2022-08-20T07:03:40;99845.75;;;23.00;31.30
36404;BME280;22437;55.646;37.518;2022-08-20T07:06:22;99839.47;;;22.92;31.03
36404;BME280;22437;55.646;37.518;2022-08-20T07:08:54;99841.84;;;22.90;31.56
36404;BME280;22437;55.646;37.518;2022-08-20T07:11:25;99842.63;;;22.94;30.87
36404;BME280;22437;55.646;37.518;2022-08-20T07:13:55;99839.81;;;22.98;31.07
36404;BME280;22437;55.646;37.518;2022-08-20T07:16:26;99844.22;;;22.95;31.27
36404;BME280;22437;55.646;37.518;2022-08-20T07:18:57;99844.19;;;22.99;31.05
36404;BME280;22437;55.646;37.518;2022-08-20T07:21:29;99844.25;;;22.84;31.24
36404;BME280;22437;55.646;37.518;2022-08-20T07:23:59;99845.97;;;22.60;31.15
36404;BME280;22437;55.646;37.518;2022-08-20T07:26:32;99832.59;;;22.41;31.91
36404;BME280;22437;55.646;37.518;2022-08-20T07:29:02;99825.50;;;22.33;32.09
36404;BME280;22437;55.646;37.518;2022-08-20T07:31:32;99833.44;;;22.20;32.64
36404;BME280;22437;55.646;37.518;2022-08-20T07:34:22;99823.94;;;22.17;32.34
36404;BME280;22437;55.646;37.518;2022-08-20T07:36:52;99828.41;;;21.86;32.14
36404;BME280;22437;55.646;37.518;2022-08-20T07:39:22;99839.84;;;21.92;33.17
36404;BME280;22437;55.646;37.518;2022-08-20T07:41:51;99840.66;;;21.99;32.14
36404;BME280;22437;55.646;37.518;2022-08-20T07:44:30;99833.09;;;22.07;31.93
36404;BME280;22437;55.646;37.518;2022-08-20T07:47:00;99842.16;;;22.18;31.94
36404;BME280;22437;55.646;37.518;2022-08-20T07:49:38;99852.78;;;22.45;32.09
36404;BME280;22437;55.646;37.518;2022-08-20T07:52:07;99852.72;;;22.59;31.67
36404;BME280;22437;55.646;37.518;2022-08-20T07:54:38;99850.53;;;22.96;30.53
36404;BME280;22437;55.646;37.518;2022-08-20T07:57:08;99849.09;;;23.36;30.24
36404;BME280;22437;55.646;37.518;2022-08-20T07:59:40;99847.09;;;23.37;30.27
36404;BME280;22437;55.646;37.518;2022-08-20T08:02:11;99853.16;;;24.11;29.69
36404;BME280;22437;55.646;37.518;2022-08-20T08:04:43;99857.75;;;23.45;30.35
36404;BME280;22437;55.646;37.518;2022-08-20T08:07:13;99851.13;;;23.29;30.39
36404;BME280;22437;55.646;37.518;2022-08-20T08:09:45;99855.69;;;23.04;31.38
36404;BME280;22437;55.646;37.518;2022-08-20T08:12:16;99854.16;;;22.89;30.91
36404;BME280;22437;55.646;37.518;2022-08-20T08:14:49;99865.38;;;22.67;31.20
36404;BME280;22437;55.646;37.518;2022-08-20T08:17:19;99859.13;;;22.49;31.86
36404;BME280;22437;55.646;37.518;2022-08-20T08:19:52;99869.84;;;22.47;32.01
36404;BME280;22437;55.646;37.518;2022-08-20T08:22:22;99869.06;;;22.36;31.96
36404;BME280;22437;55.646;37.518;2022-08-20T08:24:52;99865.13;;;22.26;32.66
36404;BME280;22437;55.646;37.518;2022-08-20T08:27:25;99871.88;;;22.25;33.02
36404;BME280;22437;55.646;37.518;2022-08-20T08:29:56;99871.47;;;22.12;32.56
36404;BME280;22437;55.646;37.518;2022-08-20T08:32:26;99866.75;;;22.05;32.81
36404;BME280;22437;55.646;37.518;2022-08-20T08:35:02;99864.31;;;22.18;33.20
36404;BME280;22437;55.646;37.518;2022-08-20T08:37:34;99874.63;;;22.14;32.92
36404;BME280;22437;55.646;37.518;2022-08-20T08:40:05;99867.91;;;22.12;32.52
36404;BME280;22437;55.646;37.518;2022-08-20T08:42:42;99873.44;;;22.22;32.93
36404;BME280;22437;55.646;37.518;2022-08-20T08:45:16;99870.28;;;22.17;32.85
36404;BME280;22437;55.646;37.518;2022-08-20T08:47:50;99865.94;;;22.30;33.29
36404;BME280;22437;55.646;37.518;2022-08-20T08:50:27;99869.47;;;22.38;32.57
36404;BME280;22437;55.646;37.518;2022-08-20T08:53:23;99871.44;;;22.37;32.92
36404;BME280;22437;55.646;37.518;2022-08-20T08:55:54;99878.97;;;22.29;32.64
36404;BME280;22437;55.646;37.518;2022-08-20T08:58:24;99879.78;;;22.30;32.52
36404;BME280;22437;55.646;37.518;2022-08-20T09:01:01;99867.47;;;22.42;32.58
36404;BME280;22437;55.646;37.518;2022-08-20T09:03:37;99873.81;;;22.39;33.10
36404;BME280;22437;55.646;37.518;2022-08-20T09:06:14;99884.13;;;22.24;33.46
36404;BME280;22437;55.646;37.518;2022-08-20T09:08:50;99880.19;;;22.25;33.62
36404;BME280;22437;55.646;37.518;2022-08-20T09:11:23;99885.31;;;22.16;33.53
36404;BME280;22437;55.646;37.518;2022-08-20T09:13:59;99881.78;;;22.15;34.03
36404;BME280;22437;55.646;37.518;2022-08-20T09:16:34;99888.09;;;22.19;34.70
36404;BME280;22437;55.646;37.518;2022-08-20T09:19:22;99881.78;;;22.01;35.58
36404;BME280;22437;55.646;37.518;2022-08-20T09:21:55;99881.38;;;22.09;34.80
36404;BME280;22437;55.646;37.518;2022-08-20T09:24:25;99886.97;;;21.88;35.23
36404;BME280;22437;55.646;37.518;2022-08-20T09:26:58;99881.84;;;21.83;36.50
36404;BME280;22437;55.646;37.518;2022-08-20T09:29:27;99879.44;;;21.70;36.53
36404;BME280;22437;55.646;37.518;2022-08-20T09:32:04;99879.47;;;21.49;37.68
36404;BME280;22437;55.646;37.518;2022-08-20T09:34:38;99883.00;;;21.35;38.13
36404;BME280;22437;55.646;37.518;2022-08-20T09:37:09;99879.03;;;21.25;39.06
36404;BME280;22437;55.646;37.518;2022-08-20T09:39:40;99865.19;;;21.29;39.57
36404;BME280;22437;55.646;37.518;2022-08-20T09:42:12;99879.03;;;21.36;38.59
36404;BME280;22437;55.646;37.518;2022-08-20T09:44:45;99886.13;;;21.26;39.85
36404;BME280;22437;55.646;37.518;2022-08-20T09:47:16;99874.69;;;21.28;40.65
36404;BME280;22437;55.646;37.518;2022-08-20T09:49:46;99876.25;;;21.18;40.49
36404;BME280;22437;55.646;37.518;2022-08-20T09:52:22;99871.91;;;21.14;41.67
36404;BME280;22437;55.646;37.518;2022-08-20T09:54:55;99869.50;;;21.01;41.83
36404;BME280;22437;55.646;37.518;2022-08-20T09:57:28;99867.50;;;20.91;44.62
36404;BME280;22437;55.646;37.518;2022-08-20T10:00:03;99850.88;;;20.80;44.52
36404;BME280;22437;55.646;37.518;2022-08-20T10:02:39;99837.41;;;20.68;43.47
36404;BME280;22437;55.646;37.518;2022-08-20T10:05:13;99832.28;;;20.70;43.41
36404;BME280;22437;55.646;37.518;2022-08-20T10:07:47;99827.56;;;20.81;44.04
36404;BME280;22437;55.646;37.518;2022-08-20T10:10:19;99827.97;;;20.87;43.17
36404;BME280;22437;55.646;37.518;2022-08-20T10:12:51;99834.25;;;20.73;43.33
36404;BME280;22437;55.646;37.518;2022-08-20T10:15:22;99835.84;;;20.78;41.47
36404;BME280;22437;55.646;37.518;2022-08-20T10:17:54;99852.50;;;20.88;42.54
36404;BME280;22437;55.646;37.518;2022-08-20T10:20:28;99852.44;;;20.78;42.32
36404;BME280;22437;55.646;37.518;2022-08-20T10:23:03;99848.91;;;20.88;41.86
36404;BME280;22437;55.646;37.518;2022-08-20T10:25:34;99845.34;;;20.87;42.40
36404;BME280;22437;55.646;37.518;2022-08-20T10:28:04;99848.94;;;20.95;41.68
36404;BME280;22437;55.646;37.518;2022-08-20T10:30:34;99856.84;;;21.07;42.05
36404;BME280;22437;55.646;37.518;2022-08-20T10:33:05;99857.25;;;21.13;41.56
36404;BME280;22437;55.646;37.518;2022-08-20T10:35:35;99860.44;;;21.11;41.38
36404;BME280;22437;55.646;37.518;2022-08-20T10:38:07;99856.47;;;21.12;41.45
36404;BME280;22437;55.646;37.518;2022-08-20T10:40:37;99858.44;;;21.08;41.33
36404;BME280;22437;55.646;37.518;2022-08-20T10:43:07;99853.69;;;21.05;41.84
36404;BME280;22437;55.646;37.518;2022-08-20T10:45:40;99845.41;;;21.12;41.03
36404;BME280;22437;55.646;37.518;2022-08-20T10:48:10;99850.53;;;21.10;41.38
36404;BME280;22437;55.646;37.518;2022-08-20T10:50:39;99850.16;;;21.16;40.37
36404;BME280;22437;55.646;37.518;2022-08-20T10:53:12;99848.56;;;21.22;40.84
36404;BME280;22437;55.646;37.518;2022-08-20T10:55:42;99849.38;;;21.26;39.77
36404;BME280;22437;55.646;37.518;2022-08-20T10:58:11;99849.78;;;21.35;39.23
36404;BME280;22437;55.646;37.518;2022-08-20T11:00:41;99842.25;;;21.39;38.83
36404;BME280;22437;55.646;37.518;2022-08-20T11:03:13;99841.06;;;21.37;39.12
36404;BME280;22437;55.646;37.518;2022-08-20T11:05:45;99841.47;;;21.64;38.27
36404;BME280;22437;55.646;37.518;2022-08-20T11:08:19;99841.44;;;21.82;38.82
36404;BME280;22437;55.646;37.518;2022-08-20T11:11:03;99835.50;;;21.87;37.33
36404;BME280;22437;55.646;37.518;2022-08-20T11:13:34;99830.72;;;22.02;36.77
36404;BME280;22437;55.646;37.518;2022-08-20T11:16:04;99827.94;;;22.13;36.77
36404;BME280;22437;55.646;37.518;2022-08-20T11:18:36;99834.22;;;22.35;36.85
36404;BME280;22437;55.646;37.518;2022-08-20T11:21:10;99827.03;;;22.41;35.94
36404;BME280;22437;55.646;37.518;2022-08-20T11:23:41;99823.78;;;22.60;35.96
36404;BME280;22437;55.646;37.518;2022-08-20T11:26:17;99819.69;;;22.83;35.65
36404;BME280;22437;55.646;37.518;2022-08-20T11:28:50;99817.75;;;22.76;36.53
36404;BME280;22437;55.646;37.518;2022-08-20T11:31:21;99807.72;;;22.97;34.70
36404;BME280;22437;55.646;37.518;2022-08-20T11:33:51;99806.09;;;23.06;35.06
36404;BME280;22437;55.646;37.518;2022-08-20T11:36:22;99802.47;;;23.13;34.20
36404;BME280;22437;55.646;37.518;2022-08-20T11:38:55;99802.38;;;23.24;34.03
36404;BME280;22437;55.646;37.518;2022-08-20T11:41:26;99791.13;;;22.90;33.69
36404;BME280;22437;55.646;37.518;2022-08-20T11:43:57;99790.28;;;22.93;34.99
36404;BME280;22437;55.646;37.518;2022-08-20T11:46:48;99785.41;;;23.15;33.65
36404;BME280;22437;55.646;37.518;2022-08-20T11:49:21;99786.06;;;23.33;33.37
36404;BME280;22437;55.646;37.518;2022-08-20T11:51:54;99781.75;;;23.25;32.65
36404;BME280;22437;55.646;37.518;2022-08-20T11:54:26;99780.13;;;23.31;32.77
36404;BME280;22437;55.646;37.518;2022-08-20T11:56:57;99778.94;;;23.29;33.09
36404;BME280;22437;55.646;37.518;2022-08-20T11:59:27;99781.75;;;23.25;32.60
36404;BME280;22437;55.646;37.518;2022-08-20T12:01:57;99778.97;;;23.25;32.37
36404;BME280;22437;55.646;37.518;2022-08-20T12:04:30;99785.38;;;23.18;31.98
36404;BME280;22437;55.646;37.518;2022-08-20T12:07:10;99777.25;;;23.38;32.78
36404;BME280;22437;55.646;37.518;2022-08-20T12:09:45;99771.66;;;23.42;32.64
36404;BME280;22437;55.646;37.518;2022-08-20T12:12:20;99777.25;;;23.38;31.92
36404;BME280;22437;55.646;37.518;2022-08-20T12:14:52;99767.69;;;23.47;32.22
36404;BME280;22437;55.646;37.518;2022-08-20T12:17:26;99765.00;;;23.36;31.76
36404;BME280;22437;55.646;37.518;2022-08-20T12:19:58;99760.47;;;23.53;32.08
36404;BME280;22437;55.646;37.518;2022-08-20T12:22:29;99747.72;;;23.55;31.81
36404;BME280;22437;55.646;37.518;2022-08-20T12:25:01;99759.25;;;23.54;31.61
36404;BME280;22437;55.646;37.518;2022-08-20T12:27:35;99751.06;;;23.81;31.51
36404;BME280;22437;55.646;37.518;2022-08-20T12:30:07;99746.66;;;23.83;30.78
36404;BME280;22437;55.646;37.518;2022-08-20T12:32:38;99748.84;;;23.99;30.96
36404;BME280;22437;55.646;37.518;2022-08-20T12:35:09;99751.81;;;23.85;30.87
36404;BME280;22437;55.646;37.518;2022-08-20T12:37:41;99733.97;;;23.82;30.82
36404;BME280;22437;55.646;37.518;2022-08-20T12:40:15;99734.84;;;24.37;29.44
36404;BME280;22437;55.646;37.518;2022-08-20T12:42:59;99727.13;;;23.53;30.28
36404;BME280;22437;55.646;37.518;2022-08-20T12:45:29;99735.56;;;23.42;30.45
36404;BME280;22437;55.646;37.518;2022-08-20T12:48:02;99726.34;;;23.52;30.57
36404;BME280;22437;55.646;37.518;2022-08-20T12:50:34;99723.38;;;23.32;30.78
36404;BME280;22437;55.646;37.518;2022-08-20T12:53:07;99723.78;;;23.31;30.03
36404;BME280;22437;55.646;37.518;2022-08-20T12:55:41;99724.28;;;23.60;30.21
36404;BME280;22437;55.646;37.518;2022-08-20T12:58:11;99719.31;;;23.40;29.00
36404;BME280;22437;55.646;37.518;2022-08-20T13:00:43;99713.72;;;23.44;29.47
36404;BME280;22437;55.646;37.518;2022-08-20T13:03:20;99714.22;;;23.35;29.10
36404;BME280;22437;55.646;37.518;2022-08-20T13:05:52;99707.13;;;23.27;29.19
36404;BME280;22437;55.646;37.518;2022-08-20T13:08:22;99711.13;;;23.26;29.53
36404;BME280;22437;55.646;37.518;2022-08-20T13:10:55;99712.63;;;23.34;29.14
36404;BME280;22437;55.646;37.518;2022-08-20T13:13:25;99713.06;;;23.29;29.07
36404;BME280;22437;55.646;37.518;2022-08-20T13:15:55;99701.69;;;23.20;29.36
36404;BME280;22437;55.646;37.518;2022-08-20T13:18:26;99706.66;;;23.36;28.92